sensor_id;sensor_type;location;lat;lon;timestamp;temperature;humidity
37868;DHT22;24011;48.880;9.190;2023-02-21T00:00:16;24.10;27.50
37868;DHT22;24011;48.880;9.190;2023-02-21T00:03:05;24.10;27.50
37868;DHT22;24011;48.880;9.190;2023-02-21T00:05:53;24.10;27.50
37868;DHT22;24011;48.880;9.190;2023-02-21T00:08:40;24.10;27.50
37868;DHT22;24011;48.880;9.190;2023-02-21T00:11:26;24.10;27.50
37868;DHT22;24011;48.880;9.190;2023-02-21T00:14:13;24.10;27.60
37868;DHT22;24011;48.880;9.190;2023-02-21T00:16:59;24.10;27.60
37868;DHT22;24011;48.880;9.190;2023-02-21T00:19:48;24.10;27.60
37868;DHT22;24011;48.880;9.190;2023-02-21T00:22:37;24.10;27.60
37868;DHT22;24011;48.880;9.190;2023-02-21T00:25:25;24.10;27.70
37868;DHT22;24011;48.880;9.190;2023-02-21T00:28:12;24.10;27.70
37868;DHT22;24011;48.880;9.190;2023-02-21T00:30:58;24.10;27.60
37868;DHT22;24011;48.880;9.190;2023-02-21T00:33:44;24.00;27.60
37868;DHT22;24011;48.880;9.190;2023-02-21T00:36:31;24.10;27.60
37868;DHT22;24011;48.880;9.190;2023-02-21T00:39:19;24.00;27.60
37868;DHT22;24011;48.880;9.190;2023-02-21T00:42:05;24.10;27.70
37868;DHT22;24011;48.880;9.190;2023-02-21T00:44:52;24.00;27.70
37868;DHT22;24011;48.880;9.190;2023-02-21T00:47:38;24.10;27.70
37868;DHT22;24011;48.880;9.190;2023-02-21T00:50:25;24.00;27.60
37868;DHT22;24011;48.880;9.190;2023-02-21T00:53:11;24.00;27.60
37868;DHT22;24011;48.880;9.190;2023-02-21T00:55:59;24.00;27.70
37868;DHT22;24011;48.880;9.190;2023-02-21T00:58:48;24.00;27.70
37868;DHT22;24011;48.880;9.190;2023-02-21T01:01:35;24.00;27.70
37868;DHT22;24011;48.880;9.190;2023-02-21T01:04:21;24.00;27.70
37868;DHT22;24011;48.880;9.190;2023-02-21T01:07:10;24.00;27.70
37868;DHT22;24011;48.880;9.190;2023-02-21T01:09:56;24.00;27.70
37868;DHT22;24011;48.880;9.190;2023-02-21T01:12:44;24.00;27.70
37868;DHT22;24011;48.880;9.190;2023-02-21T01:15:31;24.00;27.80
37868;DHT22;24011;48.880;9.190;2023-02-21T01:18:17;24.00;27.80
37868;DHT22;24011;48.880;9.190;2023-02-21T01:21:03;24.00;27.70
37868;DHT22;24011;48.880;9.190;2023-02-21T01:23:50;24.00;27.70
37868;DHT22;24011;48.880;9.190;2023-02-21T01:26:36;24.00;27.80
37868;DHT22;24011;48.880;9.190;2023-02-21T01:29:23;24.00;27.70
37868;DHT22;24011;48.880;9.190;2023-02-21T01:32:10;24.00;27.80
37868;DHT22;24011;48.880;9.190;2023-02-21T01:34:56;24.00;27.80
37868;DHT22;24011;48.880;9.190;2023-02-21T01:37:43;24.00;27.80
37868;DHT22;24011;48.880;9.190;2023-02-21T01:40:30;24.00;27.80
37868;DHT22;24011;48.880;9.190;2023-02-21T01:43:18;24.00;27.80
37868;DHT22;24011;48.880;9.190;2023-02-21T01:46:09;23.90;27.80
37868;DHT22;24011;48.880;9.190;2023-02-21T01:49:01;24.00;27.80
37868;DHT22;24011;48.880;9.190;2023-02-21T01:51:49;23.90;27.80
37868;DHT22;24011;48.880;9.190;2023-02-21T01:54:40;24.00;27.90
37868;DHT22;24011;48.880;9.190;2023-02-21T01:57:27;23.90;27.80
37868;DHT22;24011;48.880;9.190;2023-02-21T02:00:16;24.00;27.90
37868;DHT22;24011;48.880;9.190;2023-02-21T02:03:05;24.00;27.90
37868;DHT22;24011;48.880;9.190;2023-02-21T02:05:54;24.00;27.90
37868;DHT22;24011;48.880;9.190;2023-02-21T02:08:41;23.90;27.90
37868;DHT22;24011;48.880;9.190;2023-02-21T02:11:55;24.00;27.90
37868;DHT22;24011;48.880;9.190;2023-02-21T02:18:17;23.90;27.90
37868;DHT22;24011;48.880;9.190;2023-02-21T02:24:17;23.90;28.00
37868;DHT22;24011;48.880;9.190;2023-02-21T02:27:24;23.90;27.90
37868;DHT22;24011;48.880;9.190;2023-02-21T02:33:46;23.90;28.00
37868;DHT22;24011;48.880;9.190;2023-02-21T02:36:26;23.90;28.00
37868;DHT22;24011;48.880;9.190;2023-02-21T02:39:02;23.90;28.00
37868;DHT22;24011;48.880;9.190;2023-02-21T02:41:42;23.90;28.00
37868;DHT22;24011;48.880;9.190;2023-02-21T02:44:19;23.90;28.00
37868;DHT22;24011;48.880;9.190;2023-02-21T02:46:54;23.90;28.00
37868;DHT22;24011;48.880;9.190;2023-02-21T02:49:30;23.90;28.00
37868;DHT22;24011;48.880;9.190;2023-02-21T02:52:05;23.90;28.00
37868;DHT22;24011;48.880;9.190;2023-02-21T02:54:35;23.90;28.00
37868;DHT22;24011;48.880;9.190;2023-02-21T02:57:06;23.90;28.00
37868;DHT22;24011;48.880;9.190;2023-02-21T02:59:38;23.90;28.00
37868;DHT22;24011;48.880;9.190;2023-02-21T03:05:27;23.90;28.10
37868;DHT22;24011;48.880;9.190;2023-02-21T03:08:10;23.90;28.10
37868;DHT22;24011;48.880;9.190;2023-02-21T03:10:45;23.90;28.10
37868;DHT22;24011;48.880;9.190;2023-02-21T03:13:21;23.90;28.50
37868;DHT22;24011;48.880;9.190;2023-02-21T03:15:56;23.90;28.00
37868;DHT22;24011;48.880;9.190;2023-02-21T03:18:25;23.90;28.10
37868;DHT22;24011;48.880;9.190;2023-02-21T03:20:59;23.80;28.20
37868;DHT22;24011;48.880;9.190;2023-02-21T03:23:34;23.80;28.20
37868;DHT22;24011;48.880;9.190;2023-02-21T03:26:05;23.80;28.20
37868;DHT22;24011;48.880;9.190;2023-02-21T03:28:36;23.80;28.20
37868;DHT22;24011;48.880;9.190;2023-02-21T03:31:09;23.80;28.10
37868;DHT22;24011;48.880;9.190;2023-02-21T03:33:43;23.80;28.20
37868;DHT22;24011;48.880;9.190;2023-02-21T03:36:13;23.80;28.10
37868;DHT22;24011;48.880;9.190;2023-02-21T03:38:44;23.90;28.20
37868;DHT22;24011;48.880;9.190;2023-02-21T03:41:14;23.80;28.10
37868;DHT22;24011;48.880;9.190;2023-02-21T03:43:43;23.90;28.10
37868;DHT22;24011;48.880;9.190;2023-02-21T03:46:12;23.80;28.20
37868;DHT22;24011;48.880;9.190;2023-02-21T03:48:42;23.80;28.20
37868;DHT22;24011;48.880;9.190;2023-02-21T03:51:13;23.90;28.20
37868;DHT22;24011;48.880;9.190;2023-02-21T03:53:44;23.80;28.20
37868;DHT22;24011;48.880;9.190;2023-02-21T03:56:13;23.80;28.10
37868;DHT22;24011;48.880;9.190;2023-02-21T03:58:43;23.60;28.20
37868;DHT22;24011;48.880;9.190;2023-02-21T04:01:12;23.60;28.10
37868;DHT22;24011;48.880;9.190;2023-02-21T04:03:42;23.60;28.10
37868;DHT22;24011;48.880;9.190;2023-02-21T04:06:11;23.60;28.00
37868;DHT22;24011;48.880;9.190;2023-02-21T04:08:40;23.60;27.90
37868;DHT22;24011;48.880;9.190;2023-02-21T04:11:11;23.60;27.80
37868;DHT22;24011;48.880;9.190;2023-02-21T04:13:40;23.70;27.80
37868;DHT22;24011;48.880;9.190;2023-02-21T04:16:09;23.60;27.70
37868;DHT22;24011;48.880;9.190;2023-02-21T04:18:38;23.60;27.80
37868;DHT22;24011;48.880;9.190;2023-02-21T04:21:07;23.60;27.60
37868;DHT22;24011;48.880;9.190;2023-02-21T04:23:37;23.60;27.60
37868;DHT22;24011;48.880;9.190;2023-02-21T04:26:06;23.60;27.60
37868;DHT22;24011;48.880;9.190;2023-02-21T04:28:39;23.60;27.50
37868;DHT22;24011;48.880;9.190;2023-02-21T04:31:08;23.60;27.50
37868;DHT22;24011;48.880;9.190;2023-02-21T04:33:37;23.60;27.40
37868;DHT22;24011;48.880;9.190;2023-02-21T04:36:06;23.50;27.40
37868;DHT22;24011;48.880;9.190;2023-02-21T04:38:36;23.60;27.40
37868;DHT22;24011;48.880;9.190;2023-02-21T04:41:05;23.60;27.30
37868;DHT22;24011;48.880;9.190;2023-02-21T04:43:34;23.50;27.30
37868;DHT22;24011;48.880;9.190;2023-02-21T04:46:05;23.50;27.20
37868;DHT22;24011;48.880;9.190;2023-02-21T04:48:35;23.50;27.30
37868;DHT22;24011;48.880;9.190;2023-02-21T04:51:04;23.40;27.30
37868;DHT22;24011;48.880;9.190;2023-02-21T04:53:48;23.40;27.30
37868;DHT22;24011;48.880;9.190;2023-02-21T04:56:22;23.40;27.20
37868;DHT22;24011;48.880;9.190;2023-02-21T04:58:51;23.40;27.20
37868;DHT22;24011;48.880;9.190;2023-02-21T05:01:26;23.50;27.10
37868;DHT22;24011;48.880;9.190;2023-02-21T05:03:57;23.50;27.00
37868;DHT22;24011;48.880;9.190;2023-02-21T05:06:30;23.50;27.00
37868;DHT22;24011;48.880;9.190;2023-02-21T05:09:03;23.50;27.00
37868;DHT22;24011;48.880;9.190;2023-02-21T05:11:33;23.50;27.00
37868;DHT22;24011;48.880;9.190;2023-02-21T05:14:02;23.50;27.00
37868;DHT22;24011;48.880;9.190;2023-02-21T05:16:32;23.50;26.90
37868;DHT22;24011;48.880;9.190;2023-02-21T05:19:02;23.50;26.90
37868;DHT22;24011;48.880;9.190;2023-02-21T05:21:33;23.50;26.90
37868;DHT22;24011;48.880;9.190;2023-02-21T05:24:05;23.50;26.90
37868;DHT22;24011;48.880;9.190;2023-02-21T05:26:35;23.50;26.80
37868;DHT22;24011;48.880;9.190;2023-02-21T05:29:06;23.40;26.80
37868;DHT22;24011;48.880;9.190;2023-02-21T05:31:36;23.50;26.80
37868;DHT22;24011;48.880;9.190;2023-02-21T05:38:21;23.50;26.70
37868;DHT22;24011;48.880;9.190;2023-02-21T05:40:53;23.50;26.80
37868;DHT22;24011;48.880;9.190;2023-02-21T05:43:25;23.50;26.80
37868;DHT22;24011;48.880;9.190;2023-02-21T05:46:00;23.40;26.80
37868;DHT22;24011;48.880;9.190;2023-02-21T05:48:30;23.50;26.80
37868;DHT22;24011;48.880;9.190;2023-02-21T05:51:02;23.40;26.80
37868;DHT22;24011;48.880;9.190;2023-02-21T05:53:31;23.40;26.80
37868;DHT22;24011;48.880;9.190;2023-02-21T05:55:59;23.30;26.90
37868;DHT22;24011;48.880;9.190;2023-02-21T05:58:28;23.30;26.90
37868;DHT22;24011;48.880;9.190;2023-02-21T06:00:58;23.30;27.00
37868;DHT22;24011;48.880;9.190;2023-02-21T06:03:31;23.40;26.90
37868;DHT22;24011;48.880;9.190;2023-02-21T06:06:02;23.40;26.80
37868;DHT22;24011;48.880;9.190;2023-02-21T06:08:31;23.40;26.70
37868;DHT22;24011;48.880;9.190;2023-02-21T07:20:58;23.50;26.80
37868;DHT22;24011;48.880;9.190;2023-02-21T07:23:28;23.40;26.90
37868;DHT22;24011;48.880;9.190;2023-02-21T07:25:57;23.40;26.80
37868;DHT22;24011;48.880;9.190;2023-02-21T07:28:26;23.50;26.90
37868;DHT22;24011;48.880;9.190;2023-02-21T07:30:56;23.60;26.80
37868;DHT22;24011;48.880;9.190;2023-02-21T07:33:25;23.60;26.80
37868;DHT22;24011;48.880;9.190;2023-02-21T07:35:54;23.60;26.70
37868;DHT22;24011;48.880;9.190;2023-02-21T07:38:29;23.60;26.80
37868;DHT22;24011;48.880;9.190;2023-02-21T07:41:00;23.50;26.90
37868;DHT22;24011;48.880;9.190;2023-02-21T07:43:30;23.40;27.10
37868;DHT22;24011;48.880;9.190;2023-02-21T07:46:03;23.50;27.00
37868;DHT22;24011;48.880;9.190;2023-02-21T07:48:33;23.50;27.10
37868;DHT22;24011;48.880;9.190;2023-02-21T07:51:03;23.50;27.00
37868;DHT22;24011;48.880;9.190;2023-02-21T07:53:34;23.60;27.20
37868;DHT22;24011;48.880;9.190;2023-02-21T07:56:04;23.70;27.00
37868;DHT22;24011;48.880;9.190;2023-02-21T07:58:33;23.70;27.00
37868;DHT22;24011;48.880;9.190;2023-02-21T08:01:04;23.90;26.90
37868;DHT22;24011;48.880;9.190;2023-02-21T08:03:33;23.80;26.80
37868;DHT22;24011;48.880;9.190;2023-02-21T08:06:04;23.80;26.90
37868;DHT22;24011;48.880;9.190;2023-02-21T08:08:36;23.90;26.90
37868;DHT22;24011;48.880;9.190;2023-02-21T08:11:06;24.10;26.70
37868;DHT22;24011;48.880;9.190;2023-02-21T08:13:34;24.20;26.80
37868;DHT22;24011;48.880;9.190;2023-02-21T08:16:04;24.00;26.80
37868;DHT22;24011;48.880;9.190;2023-02-21T08:18:34;24.00;26.90
37868;DHT22;24011;48.880;9.190;2023-02-21T08:21:03;24.10;26.70
37868;DHT22;24011;48.880;9.190;2023-02-21T08:23:37;24.30;26.60
37868;DHT22;24011;48.880;9.190;2023-02-21T08:26:06;24.30;26.60
37868;DHT22;24011;48.880;9.190;2023-02-21T08:28:35;24.40;26.50
37868;DHT22;24011;48.880;9.190;2023-02-21T08:31:06;24.30;26.60
37868;DHT22;24011;48.880;9.190;2023-02-21T08:33:37;24.40;26.70
37868;DHT22;24011;48.880;9.190;2023-02-21T08:36:07;24.30;26.70
37868;DHT22;24011;48.880;9.190;2023-02-21T08:46:29;24.20;26.80
37868;DHT22;24011;48.880;9.190;2023-02-21T09:09:10;24.60;26.60
37868;DHT22;24011;48.880;9.190;2023-02-21T09:11:41;24.70;26.70
37868;DHT22;24011;48.880;9.190;2023-02-21T09:14:41;24.70;26.70
37868;DHT22;24011;48.880;9.190;2023-02-21T09:17:13;24.50;26.70
37868;DHT22;24011;48.880;9.190;2023-02-21T09:20:00;24.60;26.80
37868;DHT22;24011;48.880;9.190;2023-02-21T11:04:28;24.90;26.80
37868;DHT22;24011;48.880;9.190;2023-02-21T11:13:00;24.90;26.80
37868;DHT22;24011;48.880;9.190;2023-02-21T12:20:19;25.00;27.10
37868;DHT22;24011;48.880;9.190;2023-02-21T12:23:15;25.00;27.10
37868;DHT22;24011;48.880;9.190;2023-02-21T12:43:37;25.10;26.90
37868;DHT22;24011;48.880;9.190;2023-02-21T12:48:32;25.00;26.90
37868;DHT22;24011;48.880;9.190;2023-02-21T12:55:57;24.90;26.70
37868;DHT22;24011;48.880;9.190;2023-02-21T13:00:26;25.00;26.50
37868;DHT22;24011;48.880;9.190;2023-02-21T13:07:21;25.20;26.20
37868;DHT22;24011;48.880;9.190;2023-02-21T13:11:21;25.10;26.20
37868;DHT22;24011;48.880;9.190;2023-02-21T13:27:45;25.30;26.60
37868;DHT22;24011;48.880;9.190;2023-02-21T13:30:21;25.30;26.60
37868;DHT22;24011;48.880;9.190;2023-02-21T13:32:54;25.50;26.50
37868;DHT22;24011;48.880;9.190;2023-02-21T13:35:29;25.60;26.30
37868;DHT22;24011;48.880;9.190;2023-02-21T13:37:59;25.70;26.50
37868;DHT22;24011;48.880;9.190;2023-02-21T13:40:35;25.90;26.10
37868;DHT22;24011;48.880;9.190;2023-02-21T13:43:10;25.90;26.40
37868;DHT22;24011;48.880;9.190;2023-02-21T13:45:41;26.00;25.70
37868;DHT22;24011;48.880;9.190;2023-02-21T13:48:29;26.00;25.70
37868;DHT22;24011;48.880;9.190;2023-02-21T13:50:59;26.00;25.70
37868;DHT22;24011;48.880;9.190;2023-02-21T13:53:34;26.10;25.60
37868;DHT22;24011;48.880;9.190;2023-02-21T13:56:39;26.10;25.50
37868;DHT22;24011;48.880;9.190;2023-02-21T14:02:25;26.10;26.00
37868;DHT22;24011;48.880;9.190;2023-02-21T14:05:05;26.10;25.80
37868;DHT22;24011;48.880;9.190;2023-02-21T14:07:56;25.90;25.70
37868;DHT22;24011;48.880;9.190;2023-02-21T14:10:42;25.60;25.40
37868;DHT22;24011;48.880;9.190;2023-02-21T14:13:23;25.60;25.60
37868;DHT22;24011;48.880;9.190;2023-02-21T14:15:57;25.50;25.50
37868;DHT22;24011;48.880;9.190;2023-02-21T14:18:31;25.50;25.80
37868;DHT22;24011;48.880;9.190;2023-02-21T14:21:11;25.50;25.80
37868;DHT22;24011;48.880;9.190;2023-02-21T14:23:45;25.40;25.80
37868;DHT22;24011;48.880;9.190;2023-02-21T14:26:35;25.40;25.80
37868;DHT22;24011;48.880;9.190;2023-02-21T14:29:30;25.40;25.70
37868;DHT22;24011;48.880;9.190;2023-02-21T14:32:27;25.40;25.60
37868;DHT22;24011;48.880;9.190;2023-02-21T14:35:01;25.20;25.70
37868;DHT22;24011;48.880;9.190;2023-02-21T14:37:43;25.30;25.80
37868;DHT22;24011;48.880;9.190;2023-02-21T14:40:23;25.40;25.70
37868;DHT22;24011;48.880;9.190;2023-02-21T14:43:19;25.30;25.70
37868;DHT22;24011;48.880;9.190;2023-02-21T14:45:57;25.30;25.80
37868;DHT22;24011;48.880;9.190;2023-02-21T14:48:53;25.20;25.80
37868;DHT22;24011;48.880;9.190;2023-02-21T14:51:48;25.20;25.90
37868;DHT22;24011;48.880;9.190;2023-02-21T14:54:57;25.10;25.90
37868;DHT22;24011;48.880;9.190;2023-02-21T14:58:11;25.00;26.00
37868;DHT22;24011;48.880;9.190;2023-02-21T15:00:53;25.00;26.20
37868;DHT22;24011;48.880;9.190;2023-02-21T15:03:30;25.00;26.30
37868;DHT22;24011;48.880;9.190;2023-02-21T15:06:04;25.00;26.10
37868;DHT22;24011;48.880;9.190;2023-02-21T15:08:43;25.00;26.20
37868;DHT22;24011;48.880;9.190;2023-02-21T15:11:23;25.00;26.10
37868;DHT22;24011;48.880;9.190;2023-02-21T15:14:16;25.00;26.10
37868;DHT22;24011;48.880;9.190;2023-02-21T15:16:54;25.00;26.10
37868;DHT22;24011;48.880;9.190;2023-02-21T15:19:29;25.00;26.10
37868;DHT22;24011;48.880;9.190;2023-02-21T15:22:18;24.90;26.20
37868;DHT22;24011;48.880;9.190;2023-02-21T15:25:18;24.80;26.20
37868;DHT22;24011;48.880;9.190;2023-02-21T15:27:59;24.80;26.20
37868;DHT22;24011;48.880;9.190;2023-02-21T15:30:35;24.70;26.40
37868;DHT22;24011;48.880;9.190;2023-02-21T15:33:14;24.80;26.40
37868;DHT22;24011;48.880;9.190;2023-02-21T15:35:47;24.70;26.40
37868;DHT22;24011;48.880;9.190;2023-02-21T15:38:22;24.70;26.40
37868;DHT22;24011;48.880;9.190;2023-02-21T15:40:57;24.70;26.50
37868;DHT22;24011;48.880;9.190;2023-02-21T15:43:32;24.60;26.60
37868;DHT22;24011;48.880;9.190;2023-02-21T15:46:06;24.60;26.50
37868;DHT22;24011;48.880;9.190;2023-02-21T15:48:36;24.60;26.50
37868;DHT22;24011;48.880;9.190;2023-02-21T15:55:30;24.60;26.60
37868;DHT22;24011;48.880;9.190;2023-02-21T15:58:02;24.60;26.70
37868;DHT22;24011;48.880;9.190;2023-02-21T16:00:33;24.60;26.60
37868;DHT22;24011;48.880;9.190;2023-02-21T16:03:25;24.50;26.70
37868;DHT22;24011;48.880;9.190;2023-02-21T16:06:07;24.50;26.60
37868;DHT22;24011;48.880;9.190;2023-02-21T16:08:38;24.50;26.60
37868;DHT22;24011;48.880;9.190;2023-02-21T16:11:08;24.40;26.70
37868;DHT22;24011;48.880;9.190;2023-02-21T16:13:39;24.50;26.70
37868;DHT22;24011;48.880;9.190;2023-02-21T16:16:08;24.50;26.70
37868;DHT22;24011;48.880;9.190;2023-02-21T16:18:38;24.50;26.60
37868;DHT22;24011;48.880;9.190;2023-02-21T16:21:21;24.40;26.70
37868;DHT22;24011;48.880;9.190;2023-02-21T16:23:50;24.40;26.70
37868;DHT22;24011;48.880;9.190;2023-02-21T16:26:21;24.30;26.70
37868;DHT22;24011;48.880;9.190;2023-02-21T16:28:56;24.20;26.90
37868;DHT22;24011;48.880;9.190;2023-02-21T16:31:26;24.30;26.80
37868;DHT22;24011;48.880;9.190;2023-02-21T16:33:57;24.20;26.90
37868;DHT22;24011;48.880;9.190;2023-02-21T16:36:32;24.20;26.90
37868;DHT22;24011;48.880;9.190;2023-02-21T16:39:01;24.20;26.80
37868;DHT22;24011;48.880;9.190;2023-02-21T16:41:30;24.10;26.90
37868;DHT22;24011;48.880;9.190;2023-02-21T16:44:01;24.10;26.90
37868;DHT22;24011;48.880;9.190;2023-02-21T16:46:30;24.10;26.90
37868;DHT22;24011;48.880;9.190;2023-02-21T16:49:01;23.90;27.10
37868;DHT22;24011;48.880;9.190;2023-02-21T16:51:30;23.90;27.10
37868;DHT22;24011;48.880;9.190;2023-02-21T16:54:02;24.00;27.00
37868;DHT22;24011;48.880;9.190;2023-02-21T16:56:31;24.00;27.00
37868;DHT22;24011;48.880;9.190;2023-02-21T16:59:02;24.00;27.00
37868;DHT22;24011;48.880;9.190;2023-02-21T17:01:32;24.00;27.00
37868;DHT22;24011;48.880;9.190;2023-02-21T17:04:01;24.00;27.10
37868;DHT22;24011;48.880;9.190;2023-02-21T17:06:32;24.00;27.00
37868;DHT22;24011;48.880;9.190;2023-02-21T17:09:02;23.90;27.10
37868;DHT22;24011;48.880;9.190;2023-02-21T17:11:31;23.80;27.20
37868;DHT22;24011;48.880;9.190;2023-02-21T17:13:59;23.80;27.20
37868;DHT22;24011;48.880;9.190;2023-02-21T17:16:30;23.80;27.20
37868;DHT22;24011;48.880;9.190;2023-02-21T17:18:58;23.90;27.20
37868;DHT22;24011;48.880;9.190;2023-02-21T17:21:27;23.80;27.30
37868;DHT22;24011;48.880;9.190;2023-02-21T17:23:58;23.80;27.30
37868;DHT22;24011;48.880;9.190;2023-02-21T17:26:28;23.80;27.40
37868;DHT22;24011;48.880;9.190;2023-02-21T17:28:57;23.70;27.50
37868;DHT22;24011;48.880;9.190;2023-02-21T17:31:26;23.70;27.50
37868;DHT22;24011;48.880;9.190;2023-02-21T17:33:57;23.70;27.50
37868;DHT22;24011;48.880;9.190;2023-02-21T17:36:27;23.70;27.50
37868;DHT22;24011;48.880;9.190;2023-02-21T17:38:57;23.70;27.50
37868;DHT22;24011;48.880;9.190;2023-02-21T17:41:26;23.60;27.60
37868;DHT22;24011;48.880;9.190;2023-02-21T17:43:55;23.70;27.60
37868;DHT22;24011;48.880;9.190;2023-02-21T17:46:24;23.90;27.40
37868;DHT22;24011;48.880;9.190;2023-02-21T17:48:52;24.00;27.20
37868;DHT22;24011;48.880;9.190;2023-02-21T17:51:24;24.10;27.20
37868;DHT22;24011;48.880;9.190;2023-02-21T17:53:54;24.10;27.20
37868;DHT22;24011;48.880;9.190;2023-02-21T17:56:23;24.20;27.10
37868;DHT22;24011;48.880;9.190;2023-02-21T17:58:53;24.20;27.10
37868;DHT22;24011;48.880;9.190;2023-02-21T18:01:23;24.20;27.00
37868;DHT22;24011;48.880;9.190;2023-02-21T18:03:54;24.20;27.10
37868;DHT22;24011;48.880;9.190;2023-02-21T18:06:25;24.20;27.10
37868;DHT22;24011;48.880;9.190;2023-02-21T18:08:54;24.20;27.10
37868;DHT22;24011;48.880;9.190;2023-02-21T18:11:24;24.30;27.20
37868;DHT22;24011;48.880;9.190;2023-02-21T18:13:54;24.30;27.20
37868;DHT22;24011;48.880;9.190;2023-02-21T18:16:24;24.30;27.10
37868;DHT22;24011;48.880;9.190;2023-02-21T18:18:56;24.30;27.10
37868;DHT22;24011;48.880;9.190;2023-02-21T18:21:27;24.30;27.10
37868;DHT22;24011;48.880;9.190;2023-02-21T18:23:55;24.30;27.10
37868;DHT22;24011;48.880;9.190;2023-02-21T18:26:24;24.30;27.10
37868;DHT22;24011;48.880;9.190;2023-02-21T18:28:54;24.30;27.10
37868;DHT22;24011;48.880;9.190;2023-02-21T18:31:23;24.30;27.10
37868;DHT22;24011;48.880;9.190;2023-02-21T18:33:52;24.30;27.20
37868;DHT22;24011;48.880;9.190;2023-02-21T18:36:21;24.30;27.10
37868;DHT22;24011;48.880;9.190;2023-02-21T18:38:52;24.30;27.20
37868;DHT22;24011;48.880;9.190;2023-02-21T18:41:21;24.30;27.20
37868;DHT22;24011;48.880;9.190;2023-02-21T18:43:51;24.30;27.20
37868;DHT22;24011;48.880;9.190;2023-02-21T18:46:21;24.30;27.20
37868;DHT22;24011;48.880;9.190;2023-02-21T18:48:51;24.30;27.30
37868;DHT22;24011;48.880;9.190;2023-02-21T18:51:20;24.30;27.20
37868;DHT22;24011;48.880;9.190;2023-02-21T18:53:52;24.40;27.20
37868;DHT22;24011;48.880;9.190;2023-02-21T18:56:21;24.30;27.30
37868;DHT22;24011;48.880;9.190;2023-02-21T18:58:53;24.30;27.30
37868;DHT22;24011;48.880;9.190;2023-02-21T19:01:22;24.30;27.30
37868;DHT22;24011;48.880;9.190;2023-02-21T19:03:53;24.30;27.30
37868;DHT22;24011;48.880;9.190;2023-02-21T19:06:22;24.30;27.30
37868;DHT22;24011;48.880;9.190;2023-02-21T19:08:55;24.40;27.30
37868;DHT22;24011;48.880;9.190;2023-02-21T19:11:26;24.40;27.30
37868;DHT22;24011;48.880;9.190;2023-02-21T19:13:56;24.40;27.30
37868;DHT22;24011;48.880;9.190;2023-02-21T19:16:25;24.40;27.50
37868;DHT22;24011;48.880;9.190;2023-02-21T19:18:55;24.40;27.20
37868;DHT22;24011;48.880;9.190;2023-02-21T19:21:25;24.40;27.20
37868;DHT22;24011;48.880;9.190;2023-02-21T19:23:55;24.40;27.10
37868;DHT22;24011;48.880;9.190;2023-02-21T19:26:27;24.50;27.10
37868;DHT22;24011;48.880;9.190;2023-02-21T19:28:57;24.50;27.20
37868;DHT22;24011;48.880;9.190;2023-02-21T19:31:26;24.50;27.10
37868;DHT22;24011;48.880;9.190;2023-02-21T19:33:56;24.50;27.20
37868;DHT22;24011;48.880;9.190;2023-02-21T19:36:25;24.50;27.10
37868;DHT22;24011;48.880;9.190;2023-02-21T19:38:56;24.50;27.20
37868;DHT22;24011;48.880;9.190;2023-02-21T19:41:25;24.50;27.20
37868;DHT22;24011;48.880;9.190;2023-02-21T19:43:54;24.50;27.20
37868;DHT22;24011;48.880;9.190;2023-02-21T19:46:27;24.50;27.20
37868;DHT22;24011;48.880;9.190;2023-02-21T19:48:56;24.50;27.20
37868;DHT22;24011;48.880;9.190;2023-02-21T19:51:27;24.50;27.20
37868;DHT22;24011;48.880;9.190;2023-02-21T19:53:59;24.50;27.20
37868;DHT22;24011;48.880;9.190;2023-02-21T19:56:29;24.50;27.20
37868;DHT22;24011;48.880;9.190;2023-02-21T19:58:58;24.50;27.20
37868;DHT22;24011;48.880;9.190;2023-02-21T20:01:27;24.50;27.20
37868;DHT22;24011;48.880;9.190;2023-02-21T20:03:58;24.50;27.20
37868;DHT22;24011;48.880;9.190;2023-02-21T20:06:27;24.50;27.20
37868;DHT22;24011;48.880;9.190;2023-02-21T20:08:56;24.50;27.20
37868;DHT22;24011;48.880;9.190;2023-02-21T20:11:26;24.50;27.20
37868;DHT22;24011;48.880;9.190;2023-02-21T20:13:55;24.50;27.20
37868;DHT22;24011;48.880;9.190;2023-02-21T20:16:26;24.50;27.20
37868;DHT22;24011;48.880;9.190;2023-02-21T20:18:55;24.50;27.20
37868;DHT22;24011;48.880;9.190;2023-02-21T20:21:27;24.50;27.20
37868;DHT22;24011;48.880;9.190;2023-02-21T20:23:57;24.50;27.20
37868;DHT22;24011;48.880;9.190;2023-02-21T20:26:28;24.60;27.20
37868;DHT22;24011;48.880;9.190;2023-02-21T20:28:58;24.50;27.20
37868;DHT22;24011;48.880;9.190;2023-02-21T20:31:30;24.50;27.20
37868;DHT22;24011;48.880;9.190;2023-02-21T20:34:02;24.60;27.20
37868;DHT22;24011;48.880;9.190;2023-02-21T20:36:35;24.60;27.20
37868;DHT22;24011;48.880;9.190;2023-02-21T20:39:07;24.60;27.20
37868;DHT22;24011;48.880;9.190;2023-02-21T20:41:46;24.60;27.70
37868;DHT22;24011;48.880;9.190;2023-02-21T20:44:18;24.60;27.20
37868;DHT22;24011;48.880;9.190;2023-02-21T20:46:47;24.60;27.20
37868;DHT22;24011;48.880;9.190;2023-02-21T20:49:16;24.60;27.20
37868;DHT22;24011;48.880;9.190;2023-02-21T20:51:48;24.60;27.20
37868;DHT22;24011;48.880;9.190;2023-02-21T20:54:18;24.60;27.20
37868;DHT22;24011;48.880;9.190;2023-02-21T20:56:52;24.60;27.30
37868;DHT22;24011;48.880;9.190;2023-02-21T20:59:24;24.60;27.20
37868;DHT22;24011;48.880;9.190;2023-02-21T21:01:55;24.60;27.20
37868;DHT22;24011;48.880;9.190;2023-02-21T21:04:27;24.60;27.20
37868;DHT22;24011;48.880;9.190;2023-02-21T21:06:58;24.70;27.20
37868;DHT22;24011;48.880;9.190;2023-02-21T21:09:28;24.60;27.20
37868;DHT22;24011;48.880;9.190;2023-02-21T21:12:04;24.70;27.30
37868;DHT22;24011;48.880;9.190;2023-02-21T21:14:35;24.70;27.20
37868;DHT22;24011;48.880;9.190;2023-02-21T21:17:06;24.60;27.20
37868;DHT22;24011;48.880;9.190;2023-02-21T21:19:39;24.70;27.20
37868;DHT22;24011;48.880;9.190;2023-02-21T21:22:15;24.70;27.20
37868;DHT22;24011;48.880;9.190;2023-02-21T21:24:45;24.70;27.20
37868;DHT22;24011;48.880;9.190;2023-02-21T21:27:17;24.70;27.20
37868;DHT22;24011;48.880;9.190;2023-02-21T21:29:46;24.60;27.20
37868;DHT22;24011;48.880;9.190;2023-02-21T21:32:18;24.70;27.20
37868;DHT22;24011;48.880;9.190;2023-02-21T21:34:50;24.70;27.20
37868;DHT22;24011;48.880;9.190;2023-02-21T21:37:22;24.60;27.20
37868;DHT22;24011;48.880;9.190;2023-02-21T21:39:54;24.60;27.20
37868;DHT22;24011;48.880;9.190;2023-02-21T21:42:27;24.60;27.20
37868;DHT22;24011;48.880;9.190;2023-02-21T21:44:57;24.60;27.30
37868;DHT22;24011;48.880;9.190;2023-02-21T21:47:28;24.60;27.20
37868;DHT22;24011;48.880;9.190;2023-02-21T21:50:00;24.60;27.30
37868;DHT22;24011;48.880;9.190;2023-02-21T21:52:31;24.60;27.30
37868;DHT22;24011;48.880;9.190;2023-02-21T21:55:01;24.60;27.30
37868;DHT22;24011;48.880;9.190;2023-02-21T21:57:32;24.60;27.30
37868;DHT22;24011;48.880;9.190;2023-02-21T22:00:05;24.60;27.30